Time;durP1;ratioP1;P1;durP2;ratioP2;P2;SDS_P1;SDS_P2;PMS_P1;PMS_P2;Temp;Humidity;BMP_temperature;BMP_pressure;BME280_temperature;BME280_humidity;BME280_pressure;Samples;Min_cycle;Max_cycle;Signal;HPM_P1;HPM_P2
2022/03/23 00:01:56;;;;;;;10.73;4.53;;;;;;;-145.69;70.23;73619.72;5067383;28;20544;-79
2022/03/23 00:04:24;;;;;;;8.80;4.70;;;;;;;-145.69;71.62;73631.66;5069024;28;20202;-79
2022/03/23 00:06:50;;;;;;;11.33;5.20;;;;;;;-145.69;72.64;73655.56;5075366;28;20658;-78
2022/03/23 00:09:17;;;;;;;8.03;4.63;;;;;;;-145.69;72.76;73671.47;5075180;28;20284;-78
2022/03/23 00:11:45;;;;;;;8.80;5.00;;;;;;;-145.69;71.92;73665.50;5075227;28;20210;-78
2022/03/23 00:14:13;;;;;;;8.23;4.47;;;;;;;-145.69;70.51;73659.53;5074945;28;20787;-78
2022/03/23 00:16:42;;;;;;;11.37;5.00;;;;;;;-145.69;69.67;73645.59;5075434;28;20258;-78
2022/03/23 00:19:12;;;;;;;10.87;4.63;;;;;;;-145.69;69.04;73659.53;5075106;28;20198;-78
2022/03/23 00:21:39;;;;;;;10.63;5.20;;;;;;;-145.69;67.80;73615.72;5075030;28;20202;-78
2022/03/23 00:24:06;;;;;;;11.63;5.00;;;;;;;-145.69;67.12;73589.84;5075221;28;20241;-78
2022/03/23 00:26:36;;;;;;;9.27;4.83;;;;;;;-145.69;65.66;73560.00;5075207;28;20237;-78
2022/03/23 00:29:02;;;;;;;8.67;4.23;;;;;;;-145.69;62.74;73532.13;5075037;28;20202;-78
2022/03/23 00:31:30;;;;;;;11.47;4.70;;;;;;;-145.69;64.05;73540.06;5074988;28;20309;-78
2022/03/23 00:33:57;;;;;;;8.00;4.30;;;;;;;-145.69;65.68;73542.06;5074731;28;20195;-78
2022/03/23 00:36:24;;;;;;;11.10;4.50;;;;;;;-145.69;67.75;73587.88;5074774;28;20199;-78
2022/03/23 00:38:51;;;;;;;10.13;5.07;;;;;;;-145.69;69.86;73603.78;5074901;28;20203;-78
2022/03/23 00:41:17;;;;;;;10.43;5.07;;;;;;;-145.69;69.85;73607.78;5074580;28;20630;-77
2022/03/23 00:43:44;;;;;;;13.37;4.73;;;;;;;-145.69;69.62;73617.72;5074146;28;20202;-78
2022/03/23 00:46:11;;;;;;;12.80;5.87;;;;;;;-145.69;68.17;73589.84;5074660;28;20195;-77
2022/03/23 00:48:39;;;;;;;11.90;4.63;;;;;;;-145.69;68.90;73605.78;5074528;28;20199;-77
2022/03/23 00:51:05;;;;;;;10.07;5.13;;;;;;;-145.69;68.74;73619.72;5074773;28;20195;-77
2022/03/23 00:53:32;;;;;;;9.33;4.53;;;;;;;-145.69;67.55;73599.81;5074535;28;20213;-77
2022/03/23 00:55:58;;;;;;;10.67;4.93;;;;;;;-145.69;68.42;73609.75;5074468;28;20231;-78
2022/03/23 00:58:25;;;;;;;8.73;4.63;;;;;;;-145.69;67.45;73607.78;5074339;28;20649;-78
2022/03/23 01:00:51;;;;;;;10.30;4.47;;;;;;;-145.69;68.92;73635.66;5074373;28;20203;-78
2022/03/23 01:03:18;;;;;;;9.90;4.63;;;;;;;-145.69;69.20;73663.53;5073889;28;20206;-77
2022/03/23 01:05:46;;;;;;;11.83;4.90;;;;;;;-145.69;69.01;73673.47;5074525;28;20206;-78
2022/03/23 01:08:12;;;;;;;11.97;4.60;;;;;;;-145.69;69.09;73667.50;5074273;28;20199;-78
2022/03/23 01:10:39;;;;;;;9.27;5.33;;;;;;;-145.69;69.75;73661.53;5074234;28;20201;-78
2022/03/23 01:13:05;;;;;;;9.43;4.50;;;;;;;-145.69;67.18;73613.75;5074119;28;20206;-77
2022/03/23 01:15:33;;;;;;;12.43;5.03;;;;;;;-145.69;66.42;73633.66;5073791;28;20708;-77
2022/03/23 01:17:59;;;;;;;9.53;4.70;;;;;;;-145.69;68.40;73649.59;5073892;28;20207;-78
2022/03/23 01:20:26;;;;;;;11.30;5.27;;;;;;;-145.69;68.42;73647.59;5073903;28;20195;-79
2022/03/23 01:22:53;;;;;;;7.87;4.60;;;;;;;-145.69;70.08;73655.56;5073968;28;20203;-78
2022/03/23 01:25:20;;;;;;;12.07;5.37;;;;;;;-145.69;72.92;73683.44;5074001;28;20285;-78
2022/03/23 01:27:47;;;;;;;11.20;5.25;;;;;;;-145.69;72.20;73663.53;5073728;28;20442;-78
2022/03/23 01:30:15;;;;;;;10.93;5.60;;;;;;;-145.69;71.61;73653.56;5073686;28;20653;-78
2022/03/23 01:32:43;;;;;;;8.70;4.73;;;;;;;-145.69;71.77;73675.47;5073703;28;20277;-78
2022/03/23 01:35:11;;;;;;;10.47;4.37;;;;;;;-145.69;71.50;73671.47;5073716;28;20574;-78
2022/03/23 01:37:38;;;;;;;8.47;4.63;;;;;;;-145.69;70.61;73647.59;5073873;28;20206;-78
2022/03/23 01:40:08;;;;;;;11.10;5.23;;;;;;;-145.69;68.89;73605.78;5073672;28;20202;-78
2022/03/23 01:42:35;;;;;;;9.07;5.33;;;;;;;-145.69;71.79;73579.91;5073572;28;20199;-78
2022/03/23 01:45:03;;;;;;;13.53;5.70;;;;;;;-145.69;73.01;73583.88;5073377;28;20209;-77
2022/03/23 01:47:29;;;;;;;11.93;5.53;;;;;;;-145.69;69.38;73585.88;5073419;28;20210;-78
2022/03/23 01:49:56;;;;;;;10.67;5.33;;;;;;;-145.69;68.05;73567.94;5073326;28;20206;-78
2022/03/23 01:52:25;;;;;;;15.10;5.57;;;;;;;-145.69;72.61;73579.91;5073472;28;20205;-78
2022/03/23 01:54:52;;;;;;;11.43;5.27;;;;;;;-145.69;74.37;73613.75;5072806;28;20226;-78
2022/03/23 01:57:22;;;;;;;9.20;5.27;;;;;;;-145.69;76.38;73651.56;5072963;28;20202;-78
2022/03/23 01:59:48;;;;;;;10.30;5.20;;;;;;;-145.69;77.52;73673.47;5073257;28;20569;-78
2022/03/23 02:02:15;;;;;;;12.77;5.87;;;;;;;-145.69;77.07;73667.50;5073497;28;20554;-78
2022/03/23 02:04:42;;;;;;;15.63;5.60;;;;;;;-145.69;75.87;73657.53;5072905;28;20201;-78
2022/03/23 02:07:08;;;;;;;11.50;5.40;;;;;;;-145.69;77.41;73679.44;5073425;28;20206;-78
2022/03/23 02:09:35;;;;;;;10.93;5.27;;;;;;;-145.69;76.59;73683.44;5056791;28;20203;-78
2022/03/23 02:12:02;;;;;;;12.67;5.80;;;;;;;-145.69;79.38;73709.31;5070473;28;20198;-77
2022/03/23 02:14:30;;;;;;;12.97;5.70;;;;;;;-145.69;79.80;73707.31;5073105;28;20227;-77
2022/03/23 02:16:59;;;;;;;13.97;6.57;;;;;;;-145.69;80.05;73713.28;5072957;28;20645;-77
2022/03/23 02:19:26;;;;;;;15.40;6.10;;;;;;;-145.69;80.05;73727.22;5073133;28;20199;-77
2022/03/23 02:21:54;;;;;;;9.23;5.87;;;;;;;-145.69;82.70;73739.19;5072969;28;20195;-77
2022/03/23 02:24:24;;;;;;;13.63;5.87;;;;;;;-145.69;79.68;73711.31;5072867;28;20206;-77
2022/03/23 02:26:52;;;;;;;14.70;6.50;;;;;;;-145.69;77.03;73673.47;5073098;28;20214;-77
2022/03/23 02:29:19;;;;;;;13.53;5.53;;;;;;;-145.69;74.72;73653.56;5073076;28;20225;-77
2022/03/23 02:31:46;;;;;;;11.97;5.50;;;;;;;-145.69;73.43;73641.63;5072784;28;20195;-77
2022/03/23 02:34:13;;;;;;;12.00;4.83;;;;;;;-145.69;72.71;73629.66;5072652;28;20198;-78
2022/03/23 02:36:39;;;;;;;12.43;5.53;;;;;;;-145.69;72.97;73611.75;5072711;28;20258;-77
2022/03/23 02:39:07;;;;;;;11.60;5.50;;;;;;;-145.69;74.61;73635.66;5072628;28;20676;-77
2022/03/23 02:41:34;;;;;;;9.13;5.23;;;;;;;-145.69;78.55;73681.44;5072749;28;20207;-77
2022/03/23 02:44:01;;;;;;;11.97;5.73;;;;;;;-145.69;77.75;73677.47;5072977;28;20199;-78
2022/03/23 02:46:33;;;;;;;9.83;5.27;;;;;;;-145.69;78.13;73693.38;5072943;28;20206;-77
2022/03/23 02:49:00;;;;;;;10.77;5.20;;;;;;;-145.69;78.04;73703.34;5072969;28;20202;-77
2022/03/23 02:51:26;;;;;;;11.23;5.80;;;;;;;-145.69;75.32;73681.44;5072791;28;20202;-78
2022/03/23 03:02:20;;;;;;;11.53;5.70;;;;;;;-145.69;73.78;73623.69;5073061;28;20209;-77
2022/03/23 03:04:47;;;;;;;10.83;4.87;;;;;;;-145.69;75.35;73639.63;5052987;28;20199;-77
2022/03/23 03:07:13;;;;;;;9.43;5.07;;;;;;;-145.69;73.66;73649.59;5054567;28;20195;-77
2022/03/23 03:09:40;;;;;;;9.93;5.03;;;;;;;-145.69;73.91;73649.59;5056825;28;20195;-77
2022/03/23 03:12:10;;;;;;;9.70;5.30;;;;;;;-145.69;71.17;73589.84;5056805;28;20214;-77
2022/03/23 03:14:37;;;;;;;11.47;5.80;;;;;;;-145.69;74.92;73629.66;5056446;28;20223;-77
2022/03/23 03:17:04;;;;;;;13.67;6.10;;;;;;;-145.69;76.85;73651.56;5056876;28;20276;-77
2022/03/23 03:19:30;;;;;;;14.77;5.37;;;;;;;-145.69;76.13;73659.53;5056758;28;20203;-77
2022/03/23 03:21:57;;;;;;;9.53;4.80;;;;;;;-145.69;75.03;73675.47;5056681;28;20246;-77
2022/03/23 03:24:23;;;;;;;11.70;5.13;;;;;;;-145.69;75.76;73683.44;5056380;28;20203;-77
2022/03/23 03:26:51;;;;;;;10.70;5.67;;;;;;;-145.69;74.90;73651.56;5056684;28;20199;-78
2022/03/23 03:29:20;;;;;;;8.73;5.13;;;;;;;-145.69;74.49;73623.69;5056300;28;20270;-77
2022/03/23 03:31:47;;;;;;;10.10;4.97;;;;;;;-145.69;74.03;73621.72;5056518;28;20206;-77
2022/03/23 03:34:13;;;;;;;8.83;5.30;;;;;;;-145.69;73.65;73611.75;5072035;28;20673;-77
2022/03/23 03:36:41;;;;;;;9.77;5.10;;;;;;;-145.69;73.53;73613.75;5076134;28;20218;-77
2022/03/23 03:39:07;;;;;;;10.10;4.87;;;;;;;-145.69;74.23;73635.66;5076206;28;20199;-77
2022/03/23 03:41:35;;;;;;;11.97;5.20;;;;;;;-145.69;77.14;73673.47;5076211;28;20206;-78
2022/03/23 03:44:02;;;;;;;11.50;5.30;;;;;;;-145.69;79.59;73713.28;5076326;28;20260;-77
2022/03/23 03:46:30;;;;;;;11.30;5.27;;;;;;;-145.69;80.88;73723.25;5076304;28;20283;-77
2022/03/23 03:48:57;;;;;;;11.17;5.57;;;;;;;-145.69;80.93;73727.22;5075886;28;20602;-77
2022/03/23 03:51:23;;;;;;;10.93;5.30;;;;;;;-145.69;81.87;73731.22;5076008;28;20668;-77
2022/03/23 03:53:50;;;;;;;10.33;5.10;;;;;;;-145.69;80.92;73713.28;5075595;28;20190;-77
2022/03/23 03:56:16;;;;;;;13.97;5.57;;;;;;;-145.69;80.83;73707.31;5075667;28;20234;-78
2022/03/23 03:58:43;;;;;;;10.07;5.47;;;;;;;-145.69;79.95;73695.38;5075882;28;20199;-77
2022/03/23 04:01:10;;;;;;;11.27;4.97;;;;;;;-145.69;77.52;73651.56;5075995;28;20210;-77
2022/03/23 04:03:37;;;;;;;13.20;5.03;;;;;;;-145.69;77.85;73659.53;5075763;28;20202;-78
2022/03/23 04:06:07;;;;;;;12.60;5.27;;;;;;;-145.69;78.99;73683.44;5075366;28;20199;-78
2022/03/23 04:08:34;;;;;;;10.73;5.03;;;;;;;-145.69;81.01;73717.28;5057509;28;20257;-78
2022/03/23 04:11:01;;;;;;;8.67;4.57;;;;;;;-145.69;78.45;73719.25;5055731;28;20210;-78
2022/03/23 04:13:28;;;;;;;9.60;5.13;;;;;;;-145.69;79.24;73743.16;5055493;28;20237;-78
2022/03/23 04:15:54;;;;;;;15.85;6.50;;;;;;;-145.69;78.41;73723.25;5054811;28;20463;-78
2022/03/23 04:18:21;;;;;;;10.47;5.30;;;;;;;-145.69;76.73;73663.53;5054493;28;20199;-78
2022/03/23 04:20:50;;;;;;;10.03;5.43;;;;;;;-145.69;77.16;73679.44;5055450;28;20226;-77
2022/03/23 04:23:16;;;;;;;10.63;5.37;;;;;;;-145.69;76.62;73689.41;5067172;28;20195;-78
2022/03/23 04:25:43;;;;;;;13.20;5.60;;;;;;;-145.69;77.92;73699.34;5075444;28;20205;-78
2022/03/23 04:28:09;;;;;;;12.00;5.47;;;;;;;-145.69;80.10;73701.34;5075520;28;20198;-78
2022/03/23 04:30:36;;;;;;;10.43;5.37;;;;;;;-145.69;79.34;73695.38;5075146;28;20199;-77
2022/03/23 04:33:02;;;;;;;8.90;4.90;;;;;;;-145.69;81.57;73745.16;5075258;28;20203;-78
2022/03/23 04:35:29;;;;;;;13.50;5.17;;;;;;;-145.69;80.93;73735.19;5075198;28;20206;-77
2022/03/23 04:37:57;;;;;;;13.63;5.63;;;;;;;-145.69;82.82;73747.13;5075056;28;20199;-78
2022/03/23 04:40:24;;;;;;;13.03;5.27;;;;;;;-145.69;83.09;73755.09;5075215;28;20203;-78
2022/03/23 04:42:51;;;;;;;10.57;5.77;;;;;;;-145.69;85.46;73771.03;5074850;28;20679;-78
2022/03/23 04:45:18;;;;;;;14.70;5.90;;;;;;;-145.69;85.32;73777.00;5075120;28;20210;-79
2022/03/23 04:47:45;;;;;;;12.23;6.03;;;;;;;-145.69;82.08;73723.25;5074958;28;20235;-78
2022/03/23 04:50:13;;;;;;;11.03;5.40;;;;;;;-145.69;84.31;73715.28;5074729;28;20290;-78
2022/03/23 04:52:41;;;;;;;13.87;5.90;;;;;;;-145.69;83.95;73719.25;5074592;28;20191;-78
2022/03/23 04:55:10;;;;;;;13.60;6.27;;;;;;;-145.69;81.48;73713.28;5075031;28;20205;-77
2022/03/23 04:57:37;;;;;;;16.20;6.50;;;;;;;-145.69;82.35;73687.41;5074522;28;20272;-78
2022/03/23 05:00:08;;;;;;;11.93;5.97;;;;;;;-145.69;84.67;73715.28;5074647;28;20287;-78
2022/03/23 05:02:35;;;;;;;13.30;5.90;;;;;;;-145.69;86.76;73753.13;5074615;28;20213;-78
2022/03/23 05:05:01;;;;;;;14.53;6.00;;;;;;;-145.69;87.41;73794.94;5074557;28;20199;-79
2022/03/23 05:07:28;;;;;;;13.33;6.33;;;;;;;-145.69;89.46;73806.88;5074829;28;20206;-78
2022/03/23 05:09:54;;;;;;;11.93;6.00;;;;;;;-145.69;90.11;73816.81;5074656;28;20252;-79
2022/03/23 05:12:22;;;;;;;15.93;6.37;;;;;;;-145.69;91.44;73812.84;5074463;28;20198;-79
2022/03/23 05:14:48;;;;;;;12.43;6.30;;;;;;;-145.69;88.36;73759.09;5074212;28;20249;-78
2022/03/23 05:17:15;;;;;;;12.53;6.40;;;;;;;-145.69;85.93;73731.22;5074190;28;20233;-78
2022/03/23 05:19:41;;;;;;;12.90;6.57;;;;;;;-145.69;85.34;73733.19;5074266;28;20194;-78
2022/03/23 05:22:08;;;;;;;13.93;7.17;;;;;;;-145.69;87.15;73737.19;5074194;28;20203;-78
2022/03/23 05:24:35;;;;;;;11.33;6.30;;;;;;;-145.69;88.39;73761.06;5074448;28;20203;-78
2022/03/23 05:27:01;;;;;;;12.30;6.30;;;;;;;-145.69;88.93;73782.97;5074265;28;20203;-78
2022/03/23 05:29:29;;;;;;;13.40;6.90;;;;;;;-145.69;89.85;73792.94;5074002;28;20206;-78
2022/03/23 05:31:56;;;;;;;14.30;6.17;;;;;;;-145.69;89.74;73796.91;5073904;28;20199;-78
2022/03/23 05:34:22;;;;;;;12.30;6.50;;;;;;;-145.69;90.93;73804.88;5074093;28;20206;-78
2022/03/23 05:36:49;;;;;;;21.07;6.90;;;;;;;-145.69;91.21;73802.88;5073704;28;20705;-78
2022/03/23 05:39:15;;;;;;;12.90;6.43;;;;;;;-145.69;90.29;73798.91;5073694;28;20208;-78
2022/03/23 05:41:42;;;;;;;12.60;6.20;;;;;;;-145.69;90.47;73796.91;5073838;28;20248;-78
2022/03/23 05:44:09;;;;;;;17.27;6.40;;;;;;;-145.69;90.40;73794.94;5073788;28;20722;-78
2022/03/23 05:46:37;;;;;;;15.47;7.03;;;;;;;-145.69;90.59;73790.94;5073679;28;20206;-77
2022/03/23 05:49:04;;;;;;;13.67;6.83;;;;;;;-145.69;91.74;73784.97;5073873;28;20202;-79
2022/03/23 05:51:31;;;;;;;22.67;7.57;;;;;;;-145.69;91.83;73755.09;5073761;28;20194;-79
2022/03/23 05:53:57;;;;;;;14.60;7.40;;;;;;;-145.69;91.26;73749.13;5073260;28;20205;-79
2022/03/23 05:56:24;;;;;;;16.10;7.23;;;;;;;-145.69;90.55;73747.13;5073663;28;20223;-79
2022/03/23 05:58:50;;;;;;;18.13;7.03;;;;;;;-145.69;90.48;73739.19;5073551;28;20198;-79
2022/03/23 06:01:17;;;;;;;15.17;7.90;;;;;;;-145.69;90.76;73719.25;5073373;28;20566;-78
2022/03/23 06:03:49;;;;;;;17.27;6.73;;;;;;;-145.69;87.63;73701.34;5073834;28;20205;-78
2022/03/23 06:06:16;;;;;;;17.37;6.50;;;;;;;-145.69;85.61;73679.44;5073442;28;20198;-78
2022/03/23 06:08:42;;;;;;;16.03;6.50;;;;;;;-145.69;85.43;73659.53;5073186;28;20207;-78
2022/03/23 06:11:08;;;;;;;11.17;6.20;;;;;;;-145.69;87.29;73673.47;5059337;28;20207;-77
2022/03/23 06:13:35;;;;;;;15.23;6.53;;;;;;;-145.69;89.45;73695.38;5053343;28;20202;-78
2022/03/23 06:16:01;;;;;;;16.20;7.20;;;;;;;-145.69;88.34;73655.56;5053319;28;20652;-77
2022/03/23 06:18:28;;;;;;;12.53;6.63;;;;;;;-145.69;85.53;73619.72;5053625;28;20207;-78
2022/03/23 06:20:56;;;;;;;16.87;7.00;;;;;;;-145.69;86.19;73625.69;5053125;28;20207;-78
2022/03/23 06:23:22;;;;;;;18.20;6.80;;;;;;;-145.69;87.14;73643.59;5069837;28;20199;-77
2022/03/23 06:25:49;;;;;;;15.73;6.73;;;;;;;-145.69;87.69;73663.53;5073050;28;20290;-77
2022/03/23 06:28:15;;;;;;;14.03;7.57;;;;;;;-145.69;88.62;73675.47;5072845;28;20194;-77
2022/03/23 06:30:42;;;;;;;11.97;7.17;;;;;;;-145.69;90.45;73679.44;5073161;28;20233;-77
2022/03/23 06:33:12;;;;;;;15.47;6.63;;;;;;;-145.69;88.04;73649.59;5072583;28;20199;-77
2022/03/23 06:35:38;;;;;;;17.40;7.10;;;;;;;-145.69;87.67;73649.59;5072849;28;20661;-77
2022/03/23 06:38:06;;;;;;;13.83;5.97;;;;;;;-145.69;88.35;73659.53;5072810;28;20230;-78
2022/03/23 06:40:34;;;;;;;11.97;6.63;;;;;;;-145.69;88.70;73651.56;5072796;28;20249;-77
2022/03/23 06:43:00;;;;;;;11.53;6.37;;;;;;;-145.69;86.61;73629.66;5072312;28;20198;-77
2022/03/23 06:45:28;;;;;;;12.37;6.73;;;;;;;-145.69;85.51;73607.78;5072719;28;20665;-78
2022/03/23 06:47:56;;;;;;;13.60;6.43;;;;;;;-145.69;84.97;73589.84;5072843;28;20249;-78
2022/03/23 06:50:25;;;;;;;17.20;6.80;;;;;;;-145.69;85.14;73571.94;5072833;28;20202;-79
2022/03/23 06:52:51;;;;;;;12.70;6.90;;;;;;;-145.69;85.03;73548.03;5072478;28;20191;-79
2022/03/23 06:55:19;;;;;;;12.13;6.20;;;;;;;-145.69;85.14;73546.06;5072626;28;20211;-78
2022/03/23 06:57:46;;;;;;;12.00;5.77;;;;;;;-145.69;84.46;73526.16;5072758;28;20238;-78
2022/03/23 07:00:13;;;;;;;13.00;6.03;;;;;;;-145.69;84.43;73508.22;5072818;28;20195;-79
2022/03/23 07:02:41;;;;;;;10.00;5.37;;;;;;;-145.69;83.70;73500.25;5072727;28;20547;-79
2022/03/23 07:05:08;;;;;;;10.73;6.10;;;;;;;-145.69;83.75;73496.28;5072612;28;20203;-79
2022/03/23 07:07:35;;;;;;;11.87;6.03;;;;;;;-145.69;82.19;73468.41;5072500;28;20249;-79
2022/03/23 07:10:04;;;;;;;11.30;5.70;;;;;;;-145.69;81.69;73436.56;5072395;28;20325;-79
2022/03/23 07:12:32;;;;;;;10.93;5.70;;;;;;;-145.69;80.20;73396.72;5072631;28;20213;-79
2022/03/23 07:14:59;;;;;;;9.00;5.20;;;;;;;-145.69;78.84;73382.81;5072399;28;20231;-79
2022/03/23 07:17:26;;;;;;;10.97;5.33;;;;;;;-145.69;75.93;73346.97;5072461;28;20223;-79
2022/03/23 07:19:52;;;;;;;11.17;5.73;;;;;;;-145.69;75.90;73303.16;5072371;28;20654;-79
2022/03/23 07:22:19;;;;;;;8.23;4.87;;;;;;;-145.69;75.03;73275.28;5072114;28;20195;-79
2022/03/23 07:24:45;;;;;;;11.13;5.53;;;;;;;-145.69;72.37;73239.47;5072526;28;20206;-79
2022/03/23 07:27:12;;;;;;;8.23;4.93;;;;;;;-145.69;72.36;73219.56;5072535;28;20570;-78
2022/03/23 07:29:41;;;;;;;9.27;4.73;;;;;;;-145.69;67.43;73195.66;5072457;28;20210;-77
2022/03/23 07:32:10;;;;;;;8.33;4.40;;;;;;;-145.69;64.22;73167.78;5072272;28;20268;-78
2022/03/23 07:34:41;;;;;;;7.63;4.70;;;;;;;-145.69;63.86;73129.97;5072364;28;20256;-78
2022/03/23 07:37:13;;;;;;;7.57;4.43;;;;;;;-145.69;62.84;73108.06;5071975;28;20222;-78
2022/03/23 07:39:42;;;;;;;8.57;4.73;;;;;;;-145.69;61.53;73080.19;5072470;28;20569;-79
2022/03/23 07:42:09;;;;;;;11.63;5.10;;;;;;;-145.69;62.92;73054.31;5072084;28;20252;-78
2022/03/23 07:44:35;;;;;;;15.63;5.30;;;;;;;-145.69;60.01;73022.47;5052025;28;20678;-79
2022/03/23 07:47:10;;;;;;;10.63;5.43;;;;;;;-145.69;56.16;72994.59;5052236;28;20207;-79
2022/03/23 07:49:36;;;;;;;17.47;5.50;;;;;;;-145.69;54.05;72956.78;5052054;28;20202;-78
2022/03/23 07:52:04;;;;;;;8.13;4.83;;;;;;;-145.69;50.62;72920.94;5052140;28;20200;-79
2022/03/23 07:54:31;;;;;;;10.50;5.43;;;;;;;-145.69;49.81;72887.09;5054128;28;20195;-79
2022/03/23 07:56:59;;;;;;;11.63;5.63;;;;;;;-145.69;50.94;72869.19;5055695;28;20227;-79
2022/03/23 07:59:26;;;;;;;12.30;5.40;;;;;;;-145.69;46.05;72845.31;5055489;28;20195;-79
2022/03/23 08:01:52;;;;;;;9.93;5.80;;;;;;;-145.69;44.41;72819.44;5055775;28;20200;-79
2022/03/23 08:04:22;;;;;;;11.93;6.00;;;;;;;-145.69;42.44;72797.53;5074372;28;20685;-79
2022/03/23 08:06:49;;;;;;;11.07;6.13;;;;;;;-145.69;40.80;72765.69;5075623;28;20203;-79
2022/03/23 08:09:18;;;;;;;11.77;6.03;;;;;;;-145.69;41.18;72745.78;5068458;28;20282;-79
2022/03/23 08:11:45;;;;;;;10.67;5.87;;;;;;;-145.69;43.15;72719.91;5066824;28;20198;-79
2022/03/23 08:14:11;;;;;;;12.97;5.77;;;;;;;-145.69;45.06;72688.06;5074948;28;20256;-78
2022/03/23 08:16:38;;;;;;;8.73;5.50;;;;;;;-145.69;42.66;72672.13;5075122;28;20195;-79
2022/03/23 08:19:09;;;;;;;14.90;6.07;;;;;;;-145.69;43.51;72666.16;5075229;28;20199;-78
2022/03/23 08:21:37;;;;;;;12.67;5.73;;;;;;;-145.69;43.13;72658.19;5075130;28;20206;-78
2022/03/23 08:24:04;;;;;;;9.70;5.53;;;;;;;-145.69;45.63;72650.22;5075083;28;20213;-79
2022/03/23 08:26:31;;;;;;;12.57;6.33;;;;;;;-145.69;44.99;72648.25;5075171;28;20211;-78
2022/03/23 08:28:57;;;;;;;13.43;6.10;;;;;;;-145.69;44.25;72640.28;5074989;28;20203;-78
2022/03/23 08:31:24;;;;;;;17.50;5.80;;;;;;;-145.69;42.49;72630.31;5075191;28;20225;-78
2022/03/23 08:33:50;;;;;;;10.03;5.77;;;;;;;-145.69;48.21;72608.44;5075115;28;20226;-78
2022/03/23 08:36:17;;;;;;;9.87;5.60;;;;;;;-145.69;45.29;72602.47;5074858;28;20198;-79
2022/03/23 08:38:45;;;;;;;20.57;7.53;;;;;;;-145.69;43.13;72594.50;5074846;28;20230;-77
2022/03/23 08:41:12;;;;;;;10.27;6.53;;;;;;;-145.69;43.28;72584.56;5073989;28;20509;-78
2022/03/23 08:43:38;;;;;;;9.97;6.27;;;;;;;-145.69;40.15;72588.53;5074380;28;20650;-78
2022/03/23 08:46:05;;;;;;;15.47;6.43;;;;;;;-145.69;40.46;72588.53;5074573;28;20203;-79
2022/03/23 08:48:31;;;;;;;13.23;6.27;;;;;;;-145.69;40.78;72604.44;5074716;28;20203;-80
2022/03/23 08:50:58;;;;;;;13.53;6.30;;;;;;;-145.69;41.54;72588.53;5074549;28;20299;-79
2022/03/23 08:53:25;;;;;;;13.37;6.30;;;;;;;-145.69;41.12;72588.53;5074393;28;20722;-79
2022/03/23 08:55:53;;;;;;;12.23;6.50;;;;;;;-145.69;40.60;72578.56;5074601;28;20235;-79
2022/03/23 08:58:20;;;;;;;18.27;6.93;;;;;;;-145.69;40.61;72558.66;5074427;28;20227;-80
2022/03/23 09:00:49;;;;;;;9.63;5.67;;;;;;;-145.69;42.09;72548.72;5074651;28;20214;-79
2022/03/23 09:03:15;;;;;;;9.27;5.80;;;;;;;-145.69;40.93;72528.81;5074494;28;20199;-80
2022/03/23 09:05:42;;;;;;;12.83;6.33;;;;;;;-145.69;41.54;72524.84;5073961;28;20600;-80
2022/03/23 09:08:09;;;;;;;11.83;5.87;;;;;;;-145.69;39.97;72512.91;5074406;28;20281;-80
2022/03/23 09:10:35;;;;;;;9.93;5.80;;;;;;;-145.69;41.34;72485.03;5074062;28;20195;-80
2022/03/23 09:13:03;;;;;;;10.63;6.23;;;;;;;-145.69;43.94;72467.13;5073478;28;20195;-80
2022/03/23 09:15:31;;;;;;;15.37;6.17;;;;;;;-145.69;44.09;72439.25;5073693;28;20218;-79
2022/03/23 09:17:59;;;;;;;11.40;6.03;;;;;;;-145.69;39.01;72435.28;5074033;28;20262;-79
2022/03/23 09:20:28;;;;;;;11.40;6.10;;;;;;;-145.69;39.85;72439.25;5074029;28;20195;-79
2022/03/23 09:22:54;;;;;;;11.57;5.80;;;;;;;-145.69;41.81;72439.25;5073924;28;20202;-79
2022/03/23 09:25:22;;;;;;;12.30;6.38;;;;;;;-145.69;39.32;72441.25;5073146;28;20437;-80
2022/03/23 09:27:49;;;;;;;11.33;6.40;;;;;;;-145.69;36.91;72413.38;5073815;28;20206;-80
2022/03/23 09:30:18;;;;;;;11.00;6.10;;;;;;;-145.69;35.88;72385.50;5073760;28;20206;-79
2022/03/23 09:32:46;;;;;;;12.73;6.10;;;;;;;-145.69;35.05;72357.66;5073721;28;20658;-79
2022/03/23 09:35:14;;;;;;;14.83;6.33;;;;;;;-145.69;34.30;72327.78;5073802;28;20199;-79
2022/03/23 09:37:52;;;;;;;12.83;6.33;;;;;;;-145.69;33.93;72299.91;5073643;28;20236;-79
2022/03/23 09:40:23;;;;;;;13.07;6.00;;;;;;;-145.69;34.86;72286.00;5073447;28;20210;-79
2022/03/23 09:42:49;;;;;;;10.60;6.50;;;;;;;-145.69;34.21;72289.97;5073780;28;20203;-79
2022/03/23 09:45:35;;;;;;;14.07;6.67;;;;;;;-145.69;33.64;72276.03;5073644;28;20203;-79
2022/03/23 09:48:03;;;;;;;9.80;6.17;;;;;;;-145.69;34.66;72254.16;5072940;28;20203;-80
2022/03/23 09:50:32;;;;;;;13.90;6.60;;;;;;;-145.69;33.47;72248.19;5073351;28;20194;-80
2022/03/23 09:52:59;;;;;;;13.37;6.10;;;;;;;-145.69;35.47;72258.13;5073312;28;20206;-80
2022/03/23 09:55:26;;;;;;;12.40;6.90;;;;;;;-145.69;34.67;72254.16;5073514;28;20203;-80
2022/03/23 09:57:55;;;;;;;14.55;6.88;;;;;;;-145.69;34.33;72254.16;5073177;28;20332;-79
2022/03/23 10:00:23;;;;;;;12.60;7.10;;;;;;;-145.69;34.54;72246.19;5073360;28;20206;-80
2022/03/23 10:04:02;;;;;;;11.97;6.90;;;;;;;-145.69;34.34;72242.22;5073181;28;20203;-80
2022/03/23 10:06:59;;;;;;;12.90;6.60;;;;;;;-145.69;33.64;72226.28;5053155;28;20196;-80
2022/03/23 10:10:08;;;;;;;15.27;7.97;;;;;;;-145.69;33.08;72232.25;5052312;28;20846;-80
2022/03/23 10:13:21;;;;;;;18.10;7.13;;;;;;;-145.69;32.91;72210.38;5053118;28;20450;-80
2022/03/23 10:16:25;;;;;;;15.57;6.90;;;;;;;-145.69;33.19;72232.25;5052706;28;20321;-79
2022/03/23 10:18:55;;;;;;;12.57;6.43;;;;;;;-145.69;33.50;72218.31;5067999;28;20616;-79
2022/03/23 10:21:24;;;;;;;14.03;7.40;;;;;;;-145.69;34.59;72210.38;5073270;28;20224;-80
2022/03/23 10:24:13;;;;;;;13.80;7.67;;;;;;;-145.69;32.69;72208.38;5073446;28;20293;-80
2022/03/23 10:26:41;;;;;;;16.33;7.30;;;;;;;-145.69;34.31;72196.44;5073013;28;20199;-79
2022/03/23 10:29:20;;;;;;;11.27;6.83;;;;;;;-145.69;31.93;72202.41;5069874;28;20202;-79
2022/03/23 10:31:46;;;;;;;13.57;6.53;;;;;;;-145.69;34.42;72190.47;5052855;28;20222;-76
2022/03/23 10:34:13;;;;;;;12.80;7.60;;;;;;;-145.69;31.98;72186.47;5052562;28;20207;-80
2022/03/23 10:36:51;;;;;;;16.90;7.00;;;;;;;-145.69;32.02;72180.50;5054201;28;20653;-78
2022/03/23 10:39:28;;;;;;;11.87;6.57;;;;;;;-145.69;32.77;72192.44;5067785;28;20229;-79
2022/03/23 10:41:58;;;;;;;13.43;6.67;;;;;;;-145.69;31.49;72174.53;5072971;28;20203;-77
2022/03/23 10:44:25;;;;;;;11.47;6.43;;;;;;;-145.69;32.58;72158.63;5072732;28;20198;-77
2022/03/23 10:46:51;;;;;;;11.90;6.83;;;;;;;-145.69;31.28;72174.53;5072145;28;20589;-78
2022/03/23 10:49:20;;;;;;;13.70;6.40;;;;;;;-145.69;31.58;72162.59;5072838;28;20574;-79
2022/03/23 10:51:46;;;;;;;14.03;7.23;;;;;;;-145.69;31.73;72142.69;5072955;28;20294;-79
2022/03/23 10:54:15;;;;;;;13.43;6.32;;;;;;;-145.69;31.06;72134.72;5072484;28;20654;-79
2022/03/23 10:56:43;;;;;;;11.33;6.63;;;;;;;-145.69;31.02;72120.81;5072709;28;20202;-78
2022/03/23 10:59:23;;;;;;;13.98;6.30;;;;;;;-145.69;32.09;72104.88;5072461;28;20227;-79
2022/03/23 11:02:01;;;;;;;13.43;6.10;;;;;;;-145.69;30.83;72100.91;5072580;28;20735;-77
2022/03/23 11:04:29;;;;;;;13.50;6.65;;;;;;;-145.69;30.96;72100.91;5072317;28;20208;-78
2022/03/23 11:06:57;;;;;;;13.38;6.35;;;;;;;-145.69;30.37;72114.81;5072600;28;20213;-76
2022/03/23 11:17:50;;;;;;;11.40;6.22;;;;;;;-145.69;30.83;72063.09;5072100;28;20303;-77
2022/03/23 11:20:17;;;;;;;14.57;6.32;;;;;;;-145.69;30.34;72071.03;5072307;28;20190;-77
2022/03/23 11:22:43;;;;;;;11.70;5.93;;;;;;;-145.69;30.13;72063.09;5072354;28;20190;-80
2022/03/23 11:25:10;;;;;;;15.13;7.55;;;;;;;-145.69;30.78;72045.16;5072292;28;20238;-79
2022/03/23 11:27:40;;;;;;;11.25;6.40;;;;;;;-145.69;30.54;72021.28;5072891;28;20661;-79
2022/03/23 11:30:07;;;;;;;9.23;5.65;;;;;;;-145.69;30.44;72019.31;5075911;28;20667;-79
2022/03/23 11:32:37;;;;;;;15.82;6.13;;;;;;;-145.69;30.01;72007.34;5075994;28;20210;-79
2022/03/23 11:35:05;;;;;;;12.73;6.47;;;;;;;-145.69;29.38;72007.34;5075814;28;20206;-79